sensor_id;sensor_type;location;lat;lon;timestamp;P1;durP1;ratioP1;P2;durP2;ratioP2
26223;SDS011;14820;48.682;8.890;2022-08-04T00:01:34;4.63;;;1.98;;
26223;SDS011;14820;48.682;8.890;2022-08-04T00:09:29;3.85;;;2.22;;
26223;SDS011;14820;48.682;8.890;2022-08-04T00:12:05;3.97;;;2.38;;
26223;SDS011;14820;48.682;8.890;2022-08-04T00:14:34;2.92;;;2.20;;
26223;SDS011;14820;48.682;8.890;2022-08-04T00:17:07;2.42;;;2.22;;
26223;SDS011;14820;48.682;8.890;2022-08-04T00:19:43;2.38;;;1.90;;
26223;SDS011;14820;48.682;8.890;2022-08-04T00:22:11;3.10;;;2.15;;
26223;SDS011;14820;48.682;8.890;2022-08-04T00:24:41;4.57;;;2.30;;
26223;SDS011;14820;48.682;8.890;2022-08-04T00:27:08;2.85;;;2.35;;
26223;SDS011;14820;48.682;8.890;2022-08-04T00:29:34;3.20;;;2.35;;
26223;SDS011;14820;48.682;8.890;2022-08-04T00:32:03;5.38;;;2.30;;
26223;SDS011;14820;48.682;8.890;2022-08-04T00:34:30;5.45;;;2.20;;
26223;SDS011;14820;48.682;8.890;2022-08-04T00:36:57;4.32;;;2.20;;
26223;SDS011;14820;48.682;8.890;2022-08-04T00:39:23;5.28;;;2.40;;
26223;SDS011;14820;48.682;8.890;2022-08-04T00:56:30;2.30;;;2.08;;
26223;SDS011;14820;48.682;8.890;2022-08-04T01:08:04;2.67;;;2.10;;
26223;SDS011;14820;48.682;8.890;2022-08-04T01:30:24;2.50;;;2.30;;
26223;SDS011;14820;48.682;8.890;2022-08-04T01:32:52;3.58;;;2.25;;
26223;SDS011;14820;48.682;8.890;2022-08-04T01:40:26;3.15;;;2.35;;
26223;SDS011;14820;48.682;8.890;2022-08-04T01:42:53;2.55;;;2.28;;
26223;SDS011;14820;48.682;8.890;2022-08-04T01:45:19;3.42;;;2.40;;
26223;SDS011;14820;48.682;8.890;2022-08-04T01:47:51;3.35;;;2.50;;
26223;SDS011;14820;48.682;8.890;2022-08-04T01:50:19;3.78;;;2.40;;
26223;SDS011;14820;48.682;8.890;2022-08-04T01:52:46;3.35;;;2.60;;
26223;SDS011;14820;48.682;8.890;2022-08-04T01:55:13;3.75;;;2.40;;
26223;SDS011;14820;48.682;8.890;2022-08-04T01:57:45;3.22;;;2.50;;
26223;SDS011;14820;48.682;8.890;2022-08-04T02:00:14;5.38;;;2.20;;
26223;SDS011;14820;48.682;8.890;2022-08-04T02:02:43;2.78;;;2.33;;
26223;SDS011;14820;48.682;8.890;2022-08-04T02:05:09;2.90;;;2.30;;
26223;SDS011;14820;48.682;8.890;2022-08-04T02:10:10;2.60;;;2.40;;
26223;SDS011;14820;48.682;8.890;2022-08-04T02:12:51;4.63;;;2.13;;
26223;SDS011;14820;48.682;8.890;2022-08-04T02:18:07;4.85;;;2.55;;
26223;SDS011;14820;48.682;8.890;2022-08-04T02:20:56;2.90;;;2.40;;
26223;SDS011;14820;48.682;8.890;2022-08-04T02:23:29;2.60;;;2.22;;
26223;SDS011;14820;48.682;8.890;2022-08-04T02:25:56;4.32;;;2.47;;
26223;SDS011;14820;48.682;8.890;2022-08-04T02:28:28;4.15;;;2.20;;
26223;SDS011;14820;48.682;8.890;2022-08-04T02:31:07;6.30;;;2.70;;
26223;SDS011;14820;48.682;8.890;2022-08-04T02:33:37;3.53;;;2.53;;
26223;SDS011;14820;48.682;8.890;2022-08-04T02:36:10;3.75;;;2.53;;
26223;SDS011;14820;48.682;8.890;2022-08-04T02:41:21;3.63;;;2.33;;
26223;SDS011;14820;48.682;8.890;2022-08-04T02:43:48;6.68;;;2.55;;
26223;SDS011;14820;48.682;8.890;2022-08-04T02:46:16;4.60;;;2.38;;
26223;SDS011;14820;48.682;8.890;2022-08-04T02:48:45;4.18;;;2.60;;
26223;SDS011;14820;48.682;8.890;2022-08-04T02:51:12;3.03;;;2.38;;
26223;SDS011;14820;48.682;8.890;2022-08-04T02:53:40;3.28;;;2.72;;
26223;SDS011;14820;48.682;8.890;2022-08-04T02:56:07;3.53;;;2.40;;
26223;SDS011;14820;48.682;8.890;2022-08-04T02:58:34;3.03;;;2.20;;
26223;SDS011;14820;48.682;8.890;2022-08-04T03:01:01;5.10;;;2.28;;
26223;SDS011;14820;48.682;8.890;2022-08-04T03:03:39;2.90;;;2.25;;
26223;SDS011;14820;48.682;8.890;2022-08-04T03:06:29;3.85;;;2.47;;
26223;SDS011;14820;48.682;8.890;2022-08-04T03:28:37;2.58;;;2.38;;
26223;SDS011;14820;48.682;8.890;2022-08-04T03:34:34;4.05;;;2.58;;
26223;SDS011;14820;48.682;8.890;2022-08-04T03:48:24;3.80;;;2.92;;
26223;SDS011;14820;48.682;8.890;2022-08-04T03:57:41;4.03;;;3.50;;
26223;SDS011;14820;48.682;8.890;2022-08-04T04:02:24;16.45;;;6.05;;
26223;SDS011;14820;48.682;8.890;2022-08-04T04:05:03;13.73;;;6.18;;
26223;SDS011;14820;48.682;8.890;2022-08-04T04:43:06;3.00;;;2.70;;
26223;SDS011;14820;48.682;8.890;2022-08-04T04:45:33;3.60;;;2.90;;
26223;SDS011;14820;48.682;8.890;2022-08-04T04:59:20;4.00;;;2.60;;
26223;SDS011;14820;48.682;8.890;2022-08-04T05:15:48;6.47;;;2.88;;
26223;SDS011;14820;48.682;8.890;2022-08-04T05:18:18;3.55;;;2.90;;
26223;SDS011;14820;48.682;8.890;2022-08-04T05:20:50;3.03;;;2.67;;
26223;SDS011;14820;48.682;8.890;2022-08-04T05:23:25;4.97;;;2.90;;
26223;SDS011;14820;48.682;8.890;2022-08-04T05:28:40;6.03;;;2.83;;
26223;SDS011;14820;48.682;8.890;2022-08-04T05:31:10;3.75;;;2.90;;
26223;SDS011;14820;48.682;8.890;2022-08-04T05:33:42;3.20;;;2.90;;
26223;SDS011;14820;48.682;8.890;2022-08-04T05:36:14;3.25;;;2.78;;
26223;SDS011;14820;48.682;8.890;2022-08-04T05:38:42;5.53;;;3.15;;
26223;SDS011;14820;48.682;8.890;2022-08-04T05:41:13;4.20;;;2.83;;
26223;SDS011;14820;48.682;8.890;2022-08-04T05:43:41;3.75;;;2.67;;
26223;SDS011;14820;48.682;8.890;2022-08-04T05:46:09;2.63;;;2.33;;
26223;SDS011;14820;48.682;8.890;2022-08-04T05:48:36;3.90;;;2.80;;
26223;SDS011;14820;48.682;8.890;2022-08-04T05:51:02;3.80;;;3.15;;
26223;SDS011;14820;48.682;8.890;2022-08-04T05:53:29;4.57;;;3.10;;
26223;SDS011;14820;48.682;8.890;2022-08-04T05:55:56;3.63;;;3.05;;
26223;SDS011;14820;48.682;8.890;2022-08-04T05:58:27;4.68;;;3.15;;
26223;SDS011;14820;48.682;8.890;2022-08-04T06:00:54;3.05;;;2.75;;
26223;SDS011;14820;48.682;8.890;2022-08-04T06:03:23;3.47;;;2.70;;
26223;SDS011;14820;48.682;8.890;2022-08-04T06:05:51;3.03;;;2.50;;
26223;SDS011;14820;48.682;8.890;2022-08-04T06:08:18;3.38;;;2.80;;
26223;SDS011;14820;48.682;8.890;2022-08-04T06:10:44;3.95;;;2.88;;
26223;SDS011;14820;48.682;8.890;2022-08-04T06:13:12;4.28;;;2.95;;
26223;SDS011;14820;48.682;8.890;2022-08-04T06:15:43;3.22;;;2.75;;
26223;SDS011;14820;48.682;8.890;2022-08-04T06:18:12;3.60;;;2.70;;
26223;SDS011;14820;48.682;8.890;2022-08-04T06:20:40;2.90;;;2.55;;
26223;SDS011;14820;48.682;8.890;2022-08-04T06:23:08;3.90;;;2.85;;
26223;SDS011;14820;48.682;8.890;2022-08-04T06:25:45;3.17;;;2.65;;
26223;SDS011;14820;48.682;8.890;2022-08-04T06:28:13;3.25;;;2.60;;
26223;SDS011;14820;48.682;8.890;2022-08-04T06:30:40;4.65;;;2.97;;
26223;SDS011;14820;48.682;8.890;2022-08-04T06:33:11;4.93;;;2.40;;
26223;SDS011;14820;48.682;8.890;2022-08-04T06:35:50;5.28;;;2.80;;
26223;SDS011;14820;48.682;8.890;2022-08-04T06:38:23;3.53;;;2.60;;
26223;SDS011;14820;48.682;8.890;2022-08-04T06:40:52;5.13;;;3.10;;
26223;SDS011;14820;48.682;8.890;2022-08-04T06:43:18;3.10;;;2.80;;
26223;SDS011;14820;48.682;8.890;2022-08-04T06:45:45;2.90;;;2.60;;
26223;SDS011;14820;48.682;8.890;2022-08-04T06:48:13;3.35;;;2.60;;
26223;SDS011;14820;48.682;8.890;2022-08-04T06:50:42;3.22;;;2.72;;
26223;SDS011;14820;48.682;8.890;2022-08-04T06:53:11;2.67;;;2.30;;
26223;SDS011;14820;48.682;8.890;2022-08-04T06:55:38;2.67;;;2.47;;
26223;SDS011;14820;48.682;8.890;2022-08-04T06:58:06;3.15;;;2.35;;
26223;SDS011;14820;48.682;8.890;2022-08-04T07:00:33;3.28;;;2.60;;
26223;SDS011;14820;48.682;8.890;2022-08-04T07:03:00;2.63;;;2.42;;
26223;SDS011;14820;48.682;8.890;2022-08-04T07:05:27;5.15;;;2.63;;
26223;SDS011;14820;48.682;8.890;2022-08-04T07:07:54;3.42;;;2.40;;
26223;SDS011;14820;48.682;8.890;2022-08-04T07:10:21;5.38;;;2.30;;
26223;SDS011;14820;48.682;8.890;2022-08-04T07:12:48;2.45;;;2.10;;
26223;SDS011;14820;48.682;8.890;2022-08-04T07:15:15;2.15;;;1.95;;
26223;SDS011;14820;48.682;8.890;2022-08-04T07:17:42;2.97;;;2.15;;
26223;SDS011;14820;48.682;8.890;2022-08-04T07:20:10;6.32;;;2.30;;
26223;SDS011;14820;48.682;8.890;2022-08-04T07:22:36;5.35;;;2.40;;
26223;SDS011;14820;48.682;8.890;2022-08-04T07:25:07;3.42;;;2.00;;
26223;SDS011;14820;48.682;8.890;2022-08-04T07:27:34;4.50;;;2.10;;
26223;SDS011;14820;48.682;8.890;2022-08-04T07:30:00;3.60;;;2.10;;
26223;SDS011;14820;48.682;8.890;2022-08-04T07:32:27;2.67;;;1.92;;
26223;SDS011;14820;48.682;8.890;2022-08-04T07:34:53;5.18;;;2.28;;
26223;SDS011;14820;48.682;8.890;2022-08-04T07:37:20;3.00;;;1.90;;
26223;SDS011;14820;48.682;8.890;2022-08-04T07:39:45;3.80;;;1.80;;
26223;SDS011;14820;48.682;8.890;2022-08-04T07:42:11;2.55;;;2.00;;
26223;SDS011;14820;48.682;8.890;2022-08-04T07:44:37;3.97;;;1.88;;
26223;SDS011;14820;48.682;8.890;2022-08-04T07:47:05;4.95;;;2.08;;
26223;SDS011;14820;48.682;8.890;2022-08-04T07:49:32;2.80;;;1.95;;
26223;SDS011;14820;48.682;8.890;2022-08-04T07:51:59;4.53;;;2.10;;
26223;SDS011;14820;48.682;8.890;2022-08-04T07:54:25;3.05;;;2.10;;
26223;SDS011;14820;48.682;8.890;2022-08-04T07:56:51;2.53;;;1.88;;
26223;SDS011;14820;48.682;8.890;2022-08-04T07:59:17;2.67;;;2.05;;
26223;SDS011;14820;48.682;8.890;2022-08-04T08:01:44;2.22;;;1.92;;
26223;SDS011;14820;48.682;8.890;2022-08-04T08:04:10;3.78;;;2.10;;
26223;SDS011;14820;48.682;8.890;2022-08-04T08:06:37;1.90;;;1.70;;
26223;SDS011;14820;48.682;8.890;2022-08-04T08:09:07;2.85;;;1.90;;
26223;SDS011;14820;48.682;8.890;2022-08-04T08:11:37;3.08;;;2.00;;
26223;SDS011;14820;48.682;8.890;2022-08-04T08:14:03;3.15;;;1.88;;
26223;SDS011;14820;48.682;8.890;2022-08-04T08:16:29;4.22;;;1.90;;
26223;SDS011;14820;48.682;8.890;2022-08-04T08:18:57;4.07;;;2.20;;
26223;SDS011;14820;48.682;8.890;2022-08-04T08:21:24;2.33;;;2.13;;
26223;SDS011;14820;48.682;8.890;2022-08-04T08:23:50;2.50;;;2.00;;
26223;SDS011;14820;48.682;8.890;2022-08-04T08:26:16;2.22;;;1.80;;
26223;SDS011;14820;48.682;8.890;2022-08-04T08:28:42;2.78;;;1.90;;
26223;SDS011;14820;48.682;8.890;2022-08-04T08:31:10;3.83;;;1.90;;
26223;SDS011;14820;48.682;8.890;2022-08-04T08:33:36;2.38;;;1.90;;
26223;SDS011;14820;48.682;8.890;2022-08-04T08:36:16;3.30;;;2.28;;
26223;SDS011;14820;48.682;8.890;2022-08-04T08:38:59;2.42;;;2.00;;
26223;SDS011;14820;48.682;8.890;2022-08-04T08:47:08;3.35;;;2.22;;
26223;SDS011;14820;48.682;8.890;2022-08-04T08:50:11;2.67;;;1.90;;
26223;SDS011;14820;48.682;8.890;2022-08-04T08:53:37;6.88;;;2.42;;
26223;SDS011;14820;48.682;8.890;2022-08-04T09:12:29;2.47;;;1.95;;
26223;SDS011;14820;48.682;8.890;2022-08-04T09:18:27;4.63;;;2.10;;
26223;SDS011;14820;48.682;8.890;2022-08-04T09:26:57;5.15;;;2.10;;
26223;SDS011;14820;48.682;8.890;2022-08-04T09:40:10;2.85;;;1.70;;
26223;SDS011;14820;48.682;8.890;2022-08-04T09:45:42;5.20;;;1.70;;
26223;SDS011;14820;48.682;8.890;2022-08-04T09:48:11;2.20;;;1.80;;
26223;SDS011;14820;48.682;8.890;2022-08-04T09:50:41;3.42;;;1.83;;
26223;SDS011;14820;48.682;8.890;2022-08-04T09:55:59;4.93;;;1.70;;
26223;SDS011;14820;48.682;8.890;2022-08-04T09:58:51;2.13;;;1.88;;
26223;SDS011;14820;48.682;8.890;2022-08-04T10:01:24;3.05;;;1.83;;
26223;SDS011;14820;48.682;8.890;2022-08-04T10:03:55;2.65;;;1.50;;
26223;SDS011;14820;48.682;8.890;2022-08-04T10:06:31;1.92;;;1.40;;
26223;SDS011;14820;48.682;8.890;2022-08-04T10:19:39;1.75;;;1.58;;
26223;SDS011;14820;48.682;8.890;2022-08-04T10:22:20;2.70;;;1.58;;
26223;SDS011;14820;48.682;8.890;2022-08-04T10:27:33;2.13;;;1.60;;
26223;SDS011;14820;48.682;8.890;2022-08-04T10:30:05;3.28;;;1.38;;
26223;SDS011;14820;48.682;8.890;2022-08-04T10:35:32;1.77;;;1.45;;
26223;SDS011;14820;48.682;8.890;2022-08-04T10:40:46;3.35;;;1.48;;
26223;SDS011;14820;48.682;8.890;2022-08-04T10:45:58;2.47;;;1.50;;
26223;SDS011;14820;48.682;8.890;2022-08-04T10:51:14;4.90;;;1.60;;
26223;SDS011;14820;48.682;8.890;2022-08-04T10:54:02;1.55;;;1.45;;
26223;SDS011;14820;48.682;8.890;2022-08-04T10:56:37;1.58;;;1.30;;
26223;SDS011;14820;48.682;8.890;2022-08-04T10:59:16;4.55;;;1.50;;
26223;SDS011;14820;48.682;8.890;2022-08-04T11:01:49;1.98;;;1.50;;
26223;SDS011;14820;48.682;8.890;2022-08-04T11:06:59;1.50;;;1.40;;
26223;SDS011;14820;48.682;8.890;2022-08-04T11:09:25;1.52;;;1.30;;
26223;SDS011;14820;48.682;8.890;2022-08-04T11:12:01;1.77;;;1.60;;
26223;SDS011;14820;48.682;8.890;2022-08-04T11:14:38;2.10;;;1.50;;
26223;SDS011;14820;48.682;8.890;2022-08-04T11:17:10;2.40;;;1.60;;
26223;SDS011;14820;48.682;8.890;2022-08-04T11:23:27;4.72;;;1.50;;
26223;SDS011;14820;48.682;8.890;2022-08-04T11:26:14;2.30;;;1.50;;
26223;SDS011;14820;48.682;8.890;2022-08-04T11:30:56;1.90;;;1.40;;
26223;SDS011;14820;48.682;8.890;2022-08-04T11:50:20;3.47;;;1.83;;
26223;SDS011;14820;48.682;8.890;2022-08-04T11:52:47;1.70;;;1.60;;
26223;SDS011;14820;48.682;8.890;2022-08-04T11:55:15;4.45;;;1.83;;
26223;SDS011;14820;48.682;8.890;2022-08-04T11:57:45;3.10;;;1.83;;
26223;SDS011;14820;48.682;8.890;2022-08-04T12:00:12;2.13;;;1.52;;
26223;SDS011;14820;48.682;8.890;2022-08-04T12:05:31;2.25;;;1.73;;
26223;SDS011;14820;48.682;8.890;2022-08-04T12:08:10;4.45;;;1.90;;
26223;SDS011;14820;48.682;8.890;2022-08-04T12:11:31;2.75;;;1.58;;
26223;SDS011;14820;48.682;8.890;2022-08-04T12:14:25;3.13;;;1.67;;
26223;SDS011;14820;48.682;8.890;2022-08-04T12:17:09;1.88;;;1.63;;
26223;SDS011;14820;48.682;8.890;2022-08-04T12:19:43;1.60;;;1.50;;
26223;SDS011;14820;48.682;8.890;2022-08-04T12:22:21;2.28;;;1.50;;
26223;SDS011;14820;48.682;8.890;2022-08-04T12:24:53;2.58;;;1.55;;
26223;SDS011;14820;48.682;8.890;2022-08-04T12:27:41;3.17;;;1.63;;
26223;SDS011;14820;48.682;8.890;2022-08-04T12:30:45;4.50;;;1.60;;
26223;SDS011;14820;48.682;8.890;2022-08-04T12:33:19;2.10;;;1.52;;
26223;SDS011;14820;48.682;8.890;2022-08-04T12:35:53;1.70;;;1.60;;
26223;SDS011;14820;48.682;8.890;2022-08-04T12:38:40;4.15;;;1.48;;
26223;SDS011;14820;48.682;8.890;2022-08-04T12:41:13;2.78;;;1.60;;
26223;SDS011;14820;48.682;8.890;2022-08-04T12:43:45;2.47;;;1.77;;
26223;SDS011;14820;48.682;8.890;2022-08-04T12:46:32;4.75;;;1.80;;
26223;SDS011;14820;48.682;8.890;2022-08-04T12:49:01;1.85;;;1.50;;
26223;SDS011;14820;48.682;8.890;2022-08-04T12:51:28;3.17;;;1.60;;
26223;SDS011;14820;48.682;8.890;2022-08-04T12:54:06;2.10;;;1.58;;
26223;SDS011;14820;48.682;8.890;2022-08-04T12:56:34;1.80;;;1.60;;
26223;SDS011;14820;48.682;8.890;2022-08-04T12:59:02;4.15;;;1.83;;
26223;SDS011;14820;48.682;8.890;2022-08-04T13:01:31;5.65;;;1.60;;
26223;SDS011;14820;48.682;8.890;2022-08-04T13:03:59;5.25;;;1.65;;
26223;SDS011;14820;48.682;8.890;2022-08-04T13:06:36;2.17;;;1.50;;
26223;SDS011;14820;48.682;8.890;2022-08-04T13:09:04;4.05;;;1.40;;
26223;SDS011;14820;48.682;8.890;2022-08-04T13:11:34;2.63;;;1.80;;
26223;SDS011;14820;48.682;8.890;2022-08-04T13:14:03;1.52;;;1.42;;
26223;SDS011;14820;48.682;8.890;2022-08-04T13:16:31;3.05;;;1.60;;
26223;SDS011;14820;48.682;8.890;2022-08-04T13:18:57;3.28;;;1.50;;
26223;SDS011;14820;48.682;8.890;2022-08-04T13:21:26;2.15;;;1.67;;
26223;SDS011;14820;48.682;8.890;2022-08-04T13:23:57;4.65;;;1.65;;
26223;SDS011;14820;48.682;8.890;2022-08-04T13:26:27;2.25;;;1.67;;
26223;SDS011;14820;48.682;8.890;2022-08-04T13:28:54;1.67;;;1.50;;
26223;SDS011;14820;48.682;8.890;2022-08-04T13:31:25;1.98;;;1.60;;
26223;SDS011;14820;48.682;8.890;2022-08-04T13:33:54;2.65;;;1.90;;
26223;SDS011;14820;48.682;8.890;2022-08-04T13:36:32;2.45;;;1.80;;
26223;SDS011;14820;48.682;8.890;2022-08-04T13:39:01;2.53;;;1.70;;
26223;SDS011;14820;48.682;8.890;2022-08-04T13:41:41;2.90;;;1.95;;
26223;SDS011;14820;48.682;8.890;2022-08-04T13:44:10;3.08;;;1.73;;
26223;SDS011;14820;48.682;8.890;2022-08-04T13:46:40;4.20;;;1.90;;
26223;SDS011;14820;48.682;8.890;2022-08-04T13:49:11;2.15;;;1.70;;
26223;SDS011;14820;48.682;8.890;2022-08-04T13:51:45;2.03;;;1.83;;
26223;SDS011;14820;48.682;8.890;2022-08-04T13:54:19;3.30;;;1.65;;
26223;SDS011;14820;48.682;8.890;2022-08-04T13:56:47;2.55;;;1.73;;
26223;SDS011;14820;48.682;8.890;2022-08-04T13:59:17;4.82;;;1.90;;
26223;SDS011;14820;48.682;8.890;2022-08-04T14:01:55;3.45;;;1.88;;
26223;SDS011;14820;48.682;8.890;2022-08-04T14:04:25;3.65;;;1.63;;
26223;SDS011;14820;48.682;8.890;2022-08-04T14:09:49;2.72;;;1.67;;
26223;SDS011;14820;48.682;8.890;2022-08-04T14:12:16;3.75;;;1.70;;
26223;SDS011;14820;48.682;8.890;2022-08-04T14:14:44;3.20;;;1.80;;
26223;SDS011;14820;48.682;8.890;2022-08-04T14:17:12;3.58;;;1.73;;
26223;SDS011;14820;48.682;8.890;2022-08-04T14:20:13;5.28;;;1.85;;
26223;SDS011;14820;48.682;8.890;2022-08-04T14:22:33;2.25;;;1.90;;
26223;SDS011;14820;48.682;8.890;2022-08-04T14:30:52;2.95;;;1.98;;
26223;SDS011;14820;48.682;8.890;2022-08-04T14:32:58;3.28;;;1.55;;
26223;SDS011;14820;48.682;8.890;2022-08-04T14:35:29;2.97;;;1.85;;
26223;SDS011;14820;48.682;8.890;2022-08-04T14:38:03;2.65;;;1.90;;
26223;SDS011;14820;48.682;8.890;2022-08-04T14:40:31;3.90;;;1.98;;
26223;SDS011;14820;48.682;8.890;2022-08-04T14:42:59;2.90;;;1.70;;
26223;SDS011;14820;48.682;8.890;2022-08-04T14:45:32;1.98;;;1.75;;
26223;SDS011;14820;48.682;8.890;2022-08-04T14:48:08;3.30;;;1.77;;
26223;SDS011;14820;48.682;8.890;2022-08-04T14:50:45;2.22;;;1.75;;
26223;SDS011;14820;48.682;8.890;2022-08-04T14:53:16;2.55;;;2.08;;
26223;SDS011;14820;48.682;8.890;2022-08-04T14:55:54;3.03;;;1.95;;
26223;SDS011;14820;48.682;8.890;2022-08-04T14:58:22;2.47;;;1.70;;
26223;SDS011;14820;48.682;8.890;2022-08-04T15:00:54;3.33;;;1.80;;
26223;SDS011;14820;48.682;8.890;2022-08-04T15:03:22;2.00;;;1.80;;
26223;SDS011;14820;48.682;8.890;2022-08-04T15:05:49;2.05;;;1.50;;
26223;SDS011;14820;48.682;8.890;2022-08-04T15:08:15;4.15;;;1.85;;
26223;SDS011;14820;48.682;8.890;2022-08-04T15:10:41;6.65;;;2.13;;
26223;SDS011;14820;48.682;8.890;2022-08-04T15:13:08;3.80;;;1.98;;
26223;SDS011;14820;48.682;8.890;2022-08-04T15:15:37;2.65;;;1.92;;
26223;SDS011;14820;48.682;8.890;2022-08-04T15:18:06;2.22;;;1.70;;
26223;SDS011;14820;48.682;8.890;2022-08-04T15:20:32;1.80;;;1.70;;
26223;SDS011;14820;48.682;8.890;2022-08-04T15:23:00;6.20;;;1.83;;
26223;SDS011;14820;48.682;8.890;2022-08-04T15:25:30;3.78;;;1.67;;
26223;SDS011;14820;48.682;8.890;2022-08-04T15:28:01;2.50;;;1.95;;
26223;SDS011;14820;48.682;8.890;2022-08-04T15:30:29;3.33;;;2.30;;
26223;SDS011;14820;48.682;8.890;2022-08-04T15:32:56;2.22;;;1.70;;
26223;SDS011;14820;48.682;8.890;2022-08-04T15:35:27;3.65;;;1.67;;
26223;SDS011;14820;48.682;8.890;2022-08-04T15:40:29;3.35;;;1.90;;
26223;SDS011;14820;48.682;8.890;2022-08-04T15:46:05;2.80;;;1.90;;
26223;SDS011;14820;48.682;8.890;2022-08-04T15:48:31;2.60;;;1.90;;
26223;SDS011;14820;48.682;8.890;2022-08-04T15:53:23;3.03;;;1.65;;
26223;SDS011;14820;48.682;8.890;2022-08-04T15:55:50;2.15;;;1.90;;
26223;SDS011;14820;48.682;8.890;2022-08-04T15:58:20;2.15;;;1.90;;
26223;SDS011;14820;48.682;8.890;2022-08-04T16:22:09;1.90;;;1.70;;
26223;SDS011;14820;48.682;8.890;2022-08-04T16:24:37;2.13;;;1.92;;
26223;SDS011;14820;48.682;8.890;2022-08-04T16:27:07;2.33;;;2.00;;
26223;SDS011;14820;48.682;8.890;2022-08-04T16:29:35;2.58;;;1.88;;
26223;SDS011;14820;48.682;8.890;2022-08-04T16:37:00;1.98;;;1.70;;
26223;SDS011;14820;48.682;8.890;2022-08-04T16:39:29;1.70;;;1.60;;
26223;SDS011;14820;48.682;8.890;2022-08-04T16:41:56;2.67;;;1.85;;
26223;SDS011;14820;48.682;8.890;2022-08-04T16:46:59;2.85;;;2.00;;
26223;SDS011;14820;48.682;8.890;2022-08-04T16:49:26;2.95;;;1.70;;
26223;SDS011;14820;48.682;8.890;2022-08-04T16:51:52;2.90;;;2.00;;
26223;SDS011;14820;48.682;8.890;2022-08-04T16:54:19;2.83;;;2.10;;
26223;SDS011;14820;48.682;8.890;2022-08-04T16:56:46;2.50;;;1.80;;
26223;SDS011;14820;48.682;8.890;2022-08-04T16:59:12;3.45;;;1.75;;
26223;SDS011;14820;48.682;8.890;2022-08-04T17:01:48;3.15;;;1.83;;
26223;SDS011;14820;48.682;8.890;2022-08-04T17:04:15;1.95;;;1.75;;
26223;SDS011;14820;48.682;8.890;2022-08-04T17:06:41;1.98;;;1.70;;
26223;SDS011;14820;48.682;8.890;2022-08-04T17:09:16;3.20;;;1.70;;
26223;SDS011;14820;48.682;8.890;2022-08-04T17:11:44;2.00;;;1.60;;
26223;SDS011;14820;48.682;8.890;2022-08-04T17:14:11;3.15;;;1.65;;
26223;SDS011;14820;48.682;8.890;2022-08-04T17:16:39;2.20;;;1.98;;
26223;SDS011;14820;48.682;8.890;2022-08-04T17:19:06;2.00;;;1.63;;
26223;SDS011;14820;48.682;8.890;2022-08-04T17:21:34;2.10;;;1.90;;
26223;SDS011;14820;48.682;8.890;2022-08-04T17:24:01;6.28;;;1.88;;
26223;SDS011;14820;48.682;8.890;2022-08-04T17:26:29;2.50;;;1.73;;
26223;SDS011;14820;48.682;8.890;2022-08-04T17:28:58;2.30;;;1.83;;
26223;SDS011;14820;48.682;8.890;2022-08-04T17:31:26;2.50;;;1.77;;
26223;SDS011;14820;48.682;8.890;2022-08-04T17:33:57;3.38;;;1.80;;
26223;SDS011;14820;48.682;8.890;2022-08-04T17:36:28;2.13;;;1.90;;
26223;SDS011;14820;48.682;8.890;2022-08-04T17:38:57;2.25;;;1.90;;
26223;SDS011;14820;48.682;8.890;2022-08-04T17:41:25;1.98;;;1.77;;
26223;SDS011;14820;48.682;8.890;2022-08-04T17:46:26;2.17;;;1.80;;
26223;SDS011;14820;48.682;8.890;2022-08-04T17:48:59;2.10;;;1.90;;
26223;SDS011;14820;48.682;8.890;2022-08-04T17:53:59;2.80;;;1.80;;
26223;SDS011;14820;48.682;8.890;2022-08-04T17:56:35;3.25;;;1.90;;
26223;SDS011;14820;48.682;8.890;2022-08-04T17:59:09;2.28;;;1.80;;
26223;SDS011;14820;48.682;8.890;2022-08-04T18:01:41;4.18;;;2.45;;
26223;SDS011;14820;48.682;8.890;2022-08-04T18:07:10;3.67;;;3.38;;
26223;SDS011;14820;48.682;8.890;2022-08-04T18:09:41;4.07;;;3.53;;
26223;SDS011;14820;48.682;8.890;2022-08-04T18:15:01;3.47;;;2.88;;
26223;SDS011;14820;48.682;8.890;2022-08-04T18:17:33;3.10;;;2.42;;
26223;SDS011;14820;48.682;8.890;2022-08-04T18:20:03;6.32;;;2.63;;
26223;SDS011;14820;48.682;8.890;2022-08-04T18:22:30;7.65;;;3.63;;
26223;SDS011;14820;48.682;8.890;2022-08-04T18:24:56;8.00;;;3.38;;
26223;SDS011;14820;48.682;8.890;2022-08-04T18:27:23;15.70;;;4.78;;
26223;SDS011;14820;48.682;8.890;2022-08-04T18:29:51;10.02;;;3.30;;
26223;SDS011;14820;48.682;8.890;2022-08-04T18:32:18;9.18;;;3.15;;
26223;SDS011;14820;48.682;8.890;2022-08-04T18:34:45;15.07;;;3.78;;
26223;SDS011;14820;48.682;8.890;2022-08-04T18:37:11;10.38;;;2.95;;
26223;SDS011;14820;48.682;8.890;2022-08-04T18:39:37;7.95;;;2.95;;
26223;SDS011;14820;48.682;8.890;2022-08-04T18:42:03;7.30;;;2.80;;
26223;SDS011;14820;48.682;8.890;2022-08-04T18:44:29;9.43;;;3.05;;
26223;SDS011;14820;48.682;8.890;2022-08-04T18:46:56;13.85;;;3.22;;
26223;SDS011;14820;48.682;8.890;2022-08-04T18:49:22;21.27;;;3.83;;
26223;SDS011;14820;48.682;8.890;2022-08-04T18:54:18;10.70;;;2.90;;
26223;SDS011;14820;48.682;8.890;2022-08-04T18:56:44;12.60;;;2.95;;
26223;SDS011;14820;48.682;8.890;2022-08-04T18:59:09;10.52;;;3.63;;
26223;SDS011;14820;48.682;8.890;2022-08-04T19:01:35;13.15;;;3.60;;
26223;SDS011;14820;48.682;8.890;2022-08-04T19:04:02;4.57;;;2.55;;
26223;SDS011;14820;48.682;8.890;2022-08-04T19:06:28;3.00;;;2.70;;
26223;SDS011;14820;48.682;8.890;2022-08-04T19:08:54;3.42;;;2.40;;
26223;SDS011;14820;48.682;8.890;2022-08-04T19:11:20;3.70;;;2.50;;
26223;SDS011;14820;48.682;8.890;2022-08-04T19:13:46;4.38;;;2.30;;
26223;SDS011;14820;48.682;8.890;2022-08-04T19:16:12;3.55;;;2.30;;
26223;SDS011;14820;48.682;8.890;2022-08-04T19:18:38;3.75;;;2.40;;
26223;SDS011;14820;48.682;8.890;2022-08-04T19:21:03;3.10;;;2.30;;
26223;SDS011;14820;48.682;8.890;2022-08-04T19:23:29;3.58;;;2.17;;
26223;SDS011;14820;48.682;8.890;2022-08-04T19:25:56;4.05;;;2.50;;
26223;SDS011;14820;48.682;8.890;2022-08-04T19:28:23;4.15;;;2.42;;
26223;SDS011;14820;48.682;8.890;2022-08-04T19:30:49;3.53;;;2.60;;
26223;SDS011;14820;48.682;8.890;2022-08-04T19:33:14;7.20;;;2.55;;
26223;SDS011;14820;48.682;8.890;2022-08-04T19:35:40;4.72;;;2.55;;
26223;SDS011;14820;48.682;8.890;2022-08-04T19:38:08;3.67;;;2.63;;
26223;SDS011;14820;48.682;8.890;2022-08-04T19:40:35;2.58;;;2.38;;
26223;SDS011;14820;48.682;8.890;2022-08-04T19:43:06;3.17;;;2.33;;
26223;SDS011;14820;48.682;8.890;2022-08-04T19:45:32;10.70;;;2.42;;
26223;SDS011;14820;48.682;8.890;2022-08-04T19:47:58;4.72;;;2.72;;
26223;SDS011;14820;48.682;8.890;2022-08-04T19:50:24;6.43;;;2.58;;
26223;SDS011;14820;48.682;8.890;2022-08-04T19:52:50;5.68;;;2.67;;
26223;SDS011;14820;48.682;8.890;2022-08-04T19:55:17;3.45;;;2.70;;
26223;SDS011;14820;48.682;8.890;2022-08-04T19:57:46;4.05;;;2.90;;
26223;SDS011;14820;48.682;8.890;2022-08-04T20:00:12;4.85;;;2.78;;
26223;SDS011;14820;48.682;8.890;2022-08-04T20:02:39;6.35;;;2.47;;
26223;SDS011;14820;48.682;8.890;2022-08-04T20:05:05;6.15;;;2.40;;
26223;SDS011;14820;48.682;8.890;2022-08-04T20:07:31;3.10;;;2.50;;
26223;SDS011;14820;48.682;8.890;2022-08-04T20:09:57;3.28;;;2.63;;
26223;SDS011;14820;48.682;8.890;2022-08-04T20:12:23;3.47;;;2.45;;
26223;SDS011;14820;48.682;8.890;2022-08-04T20:14:48;4.15;;;2.40;;
26223;SDS011;14820;48.682;8.890;2022-08-04T20:17:14;4.72;;;2.50;;
26223;SDS011;14820;48.682;8.890;2022-08-04T20:19:40;4.90;;;2.50;;
26223;SDS011;14820;48.682;8.890;2022-08-04T20:22:06;3.85;;;2.58;;
26223;SDS011;14820;48.682;8.890;2022-08-04T20:24:32;5.70;;;2.50;;
26223;SDS011;14820;48.682;8.890;2022-08-04T20:26:57;6.32;;;2.63;;
26223;SDS011;14820;48.682;8.890;2022-08-04T20:29:23;2.90;;;2.60;;
26223;SDS011;14820;48.682;8.890;2022-08-04T20:31:49;4.35;;;2.40;;
26223;SDS011;14820;48.682;8.890;2022-08-04T20:34:15;6.60;;;2.45;;